Time;durP1;ratioP1;P1;durP2;ratioP2;P2;SDS_P1;SDS_P2;PMS_P1;PMS_P2;Temp;Humidity;BMP_temperature;BMP_pressure;BME280_temperature;BME280_humidity;BME280_pressure;Samples;Min_cycle;Max_cycle;Signal;HPM_P1;HPM_P2
2022/12/08 00:00:07;;;;;;;;;;;0.10;99.90;;;;;;5024563;28;19979;-57
2022/12/08 00:02:33;;;;;;;;;;;0.20;99.90;;;;;;5026512;28;19913;-57
2022/12/08 00:10:27;;;;;;;;;;;0.20;99.90;;;;;;5030338;28;20425;-57
2022/12/08 00:12:52;;;;;;;;;;;0.20;99.90;;;;;;5023745;28;19918;-54
2022/12/08 00:15:18;;;;;;;;;;;0.20;99.90;;;;;;5028208;28;20287;-57
2022/12/08 00:17:43;;;;;;;;;;;0.20;99.90;;;;;;5028079;28;19913;-55
2022/12/08 00:20:09;;;;;;;;;;;0.20;99.90;;;;;;5024284;28;19917;-56
2022/12/08 00:22:34;;;;;;;;;;;0.20;99.90;;;;;;5024719;28;19964;-57
2022/12/08 00:24:59;;;;;;;;;;;0.20;99.90;;;;;;5028477;28;19966;-53
2022/12/08 00:27:25;;;;;;;;;;;0.20;99.90;;;;;;5027377;28;20405;-57
2022/12/08 00:29:50;;;;;;;;;;;0.20;99.90;;;;;;5029659;28;20327;-56
2022/12/08 00:32:16;;;;;;;;;;;0.20;99.90;;;;;;5023414;28;19925;-57
2022/12/08 00:34:41;;;;;;;;;;;0.20;99.90;;;;;;5027934;28;19925;-54
2022/12/08 00:37:07;;;;;;;;;;;0.30;99.90;;;;;;5024505;28;19913;-54
2022/12/08 00:39:32;;;;;;;;;;;0.30;99.90;;;;;;5027761;28;19921;-54
2022/12/08 00:42:13;;;;;;;;;;;0.30;99.90;;;;;;5025952;28;20352;-54
2022/12/08 00:44:42;;;;;;;;;;;0.30;99.90;;;;;;5023518;28;19919;-55
2022/12/08 00:47:08;;;;;;;;;;;0.30;99.90;;;;;;5023757;28;19967;-58
2022/12/08 00:49:33;;;;;;;;;;;0.30;99.90;;;;;;5025415;28;20184;-55
2022/12/08 00:51:59;;;;;;;;;;;0.30;99.90;;;;;;5028930;28;19917;-57
2022/12/08 00:54:24;;;;;;;;;;;0.30;99.90;;;;;;5026262;28;19913;-56
2022/12/08 00:56:50;;;;;;;;;;;0.30;99.90;;;;;;5028756;28;19928;-57
2022/12/08 00:59:15;;;;;;;;;;;0.30;99.90;;;;;;5028205;28;19917;-58
2022/12/08 01:01:42;;;;;;;;;;;0.30;99.90;;;;;;5021831;28;19919;-57
2022/12/08 01:04:10;;;;;;;;;;;0.30;99.90;;;;;;5028983;28;20015;-53
2022/12/08 01:06:36;;;;;;;;;;;0.30;99.90;;;;;;5025768;28;19995;-55
2022/12/08 01:09:03;;;;;;;;;;;0.30;99.90;;;;;;5023853;28;20013;-56
2022/12/08 01:11:28;;;;;;;;;;;0.30;99.90;;;;;;5022660;28;20387;-57
2022/12/08 01:13:54;;;;;;;;;;;0.30;99.90;;;;;;5025867;28;19949;-56
2022/12/08 01:16:24;;;;;;;;;;;0.30;99.90;;;;;;5029099;28;20428;-59
2022/12/08 01:18:50;;;;;;;;;;;0.30;99.90;;;;;;5027873;28;19920;-59
2022/12/08 01:21:16;;;;;;;;;;;0.30;99.90;;;;;;5016909;28;20370;-60
2022/12/08 01:23:41;;;;;;;;;;;0.40;99.90;;;;;;5013047;28;19963;-56
2022/12/08 01:26:08;;;;;;;;;;;0.40;99.90;;;;;;5026533;28;19917;-55
2022/12/08 01:28:33;;;;;;;;;;;0.40;99.90;;;;;;5025747;28;19916;-58
2022/12/08 01:30:59;;;;;;;;;;;0.30;99.90;;;;;;5028957;28;20155;-58
2022/12/08 01:33:25;;;;;;;;;;;0.30;99.90;;;;;;5025437;28;20457;-58
2022/12/08 01:35:51;;;;;;;;;;;0.30;99.90;;;;;;5027565;28;20291;-58
2022/12/08 01:38:17;;;;;;;;;;;0.30;99.90;;;;;;5024282;28;19913;-58
2022/12/08 01:40:42;;;;;;;;;;;0.30;99.90;;;;;;5026714;28;19909;-59
2022/12/08 01:43:17;;;;;;;;;;;0.30;99.90;;;;;;5023434;28;19920;-56
2022/12/08 01:45:43;;;;;;;;;;;0.30;99.90;;;;;;5025094;28;19909;-58
2022/12/08 01:48:13;;;;;;;;;;;0.30;99.90;;;;;;5028539;28;20386;-55
2022/12/08 01:50:40;;;;;;;;;;;0.40;99.90;;;;;;5023903;28;20000;-56
2022/12/08 01:53:29;;;;;;;;;;;0.30;99.90;;;;;;5028877;28;20004;-56
2022/12/08 01:55:54;;;;;;;;;;;0.30;99.90;;;;;;5013851;28;19909;-61
2022/12/08 01:58:25;;;;;;;;;;;0.30;99.90;;;;;;5026878;28;19909;-60
2022/12/08 02:00:51;;;;;;;;;;;0.30;99.90;;;;;;5018232;28;19919;-60
2022/12/08 02:03:20;;;;;;;;;;;0.40;99.90;;;;;;5018428;28;19917;-58
2022/12/08 02:05:45;;;;;;;;;;;0.40;99.90;;;;;;5029835;28;20105;-59
2022/12/08 02:08:11;;;;;;;;;;;0.30;99.90;;;;;;5029995;28;19909;-59
2022/12/08 02:10:38;;;;;;;;;;;0.40;99.90;;;;;;5031711;28;19913;-60
2022/12/08 02:13:05;;;;;;;;;;;0.30;99.90;;;;;;5026981;28;20926;-60
2022/12/08 02:15:49;;;;;;;;;;;0.30;99.90;;;;;;5029929;28;19968;-58
2022/12/08 02:18:22;;;;;;;;;;;0.30;99.90;;;;;;5031218;28;19924;-59
2022/12/08 02:21:02;;;;;;;;;;;0.30;99.90;;;;;;5041968;28;19991;-60
2022/12/08 02:23:39;;;;;;;;;;;0.40;99.90;;;;;;5029649;28;20398;-60
2022/12/08 02:26:13;;;;;;;;;;;0.40;99.90;;;;;;5029175;28;19913;-59
2022/12/08 02:28:53;;;;;;;;;;;0.50;99.90;;;;;;5028888;28;19921;-60
2022/12/08 02:31:22;;;;;;;;;;;0.50;99.90;;;;;;5029248;28;19913;-60
2022/12/08 02:34:02;;;;;;;;;;;0.50;99.90;;;;;;5050523;22;20446;-58
2022/12/08 02:36:34;;;;;;;;;;;0.50;99.90;;;;;;5031998;28;19913;-55
2022/12/08 02:39:03;;;;;;;;;;;0.50;99.90;;;;;;5027862;28;19967;-61
2022/12/08 02:41:35;;;;;;;;;;;0.60;99.90;;;;;;5014532;28;19909;-58
2022/12/08 02:44:07;;;;;;;;;;;0.50;99.90;;;;;;5028851;28;19922;-59
2022/12/08 02:46:37;;;;;;;;;;;0.50;99.90;;;;;;5027042;28;19910;-60
2022/12/08 02:49:02;;;;;;;;;;;0.60;99.90;;;;;;5028648;28;19909;-63
2022/12/08 02:51:28;;;;;;;;;;;0.60;99.90;;;;;;5023334;28;19916;-60
2022/12/08 02:53:53;;;;;;;;;;;0.60;99.90;;;;;;5020991;28;19917;-57
2022/12/08 02:56:19;;;;;;;;;;;0.60;99.90;;;;;;5028543;28;19909;-60
2022/12/08 02:59:17;;;;;;;;;;;0.50;99.90;;;;;;5028287;28;20006;-59
2022/12/08 03:01:56;;;;;;;;;;;0.60;99.90;;;;;;4993300;28;20303;-60
2022/12/08 03:04:30;;;;;;;;;;;0.60;99.90;;;;;;5027102;28;20286;-62
2022/12/08 03:06:55;;;;;;;;;;;0.60;99.90;;;;;;5024019;28;19996;-64
2022/12/08 03:09:34;;;;;;;;;;;0.50;99.90;;;;;;5030112;28;20004;-65
2022/12/08 03:12:08;;;;;;;;;;;0.60;99.90;;;;;;5022908;28;19915;-65
2022/12/08 03:14:35;;;;;;;;;;;0.60;99.90;;;;;;5026903;28;19932;-63
2022/12/08 03:17:01;;;;;;;;;;;0.60;99.90;;;;;;5029267;28;20352;-62
2022/12/08 03:19:28;;;;;;;;;;;0.60;99.90;;;;;;5030879;28;19955;-61
2022/12/08 03:22:02;;;;;;;;;;;0.60;99.90;;;;;;5024722;28;20336;-62
2022/12/08 03:24:45;;;;;;;;;;;0.60;99.90;;;;;;5030578;28;19924;-61
2022/12/08 03:27:13;;;;;;;;;;;0.70;99.90;;;;;;5025754;28;19909;-63
2022/12/08 03:29:39;;;;;;;;;;;0.70;99.90;;;;;;5031216;28;20371;-61
2022/12/08 03:32:12;;;;;;;;;;;0.70;99.90;;;;;;5024874;28;19918;-62
2022/12/08 03:34:40;;;;;;;;;;;0.70;99.90;;;;;;5028312;28;20392;-62
2022/12/08 03:37:05;;;;;;;;;;;0.80;99.90;;;;;;5030336;28;20401;-60
2022/12/08 03:39:30;;;;;;;;;;;0.80;99.90;;;;;;5029113;28;19909;-58
2022/12/08 03:41:56;;;;;;;;;;;0.80;99.90;;;;;;5023406;28;20378;-59
2022/12/08 03:44:21;;;;;;;;;;;0.80;99.90;;;;;;5028611;28;19924;-60
2022/12/08 03:46:47;;;;;;;;;;;0.80;99.90;;;;;;5022593;28;20147;-62
2022/12/08 03:49:12;;;;;;;;;;;0.80;99.90;;;;;;5029342;28;20004;-63
2022/12/08 03:51:38;;;;;;;;;;;0.80;99.90;;;;;;5030833;28;19916;-63
2022/12/08 03:54:03;;;;;;;;;;;0.80;99.90;;;;;;5045773;28;19909;-64
2022/12/08 03:56:33;;;;;;;;;;;0.90;99.90;;;;;;5026068;28;20027;-62
2022/12/08 03:58:59;;;;;;;;;;;0.90;99.90;;;;;;5030572;28;19909;-63
2022/12/08 04:01:25;;;;;;;;;;;0.90;99.90;;;;;;5030601;28;19917;-63
2022/12/08 04:03:51;;;;;;;;;;;0.90;99.90;;;;;;5028172;28;19924;-63
2022/12/08 04:06:17;;;;;;;;;;;0.90;99.90;;;;;;5030891;28;20279;-63
2022/12/08 04:08:42;;;;;;;;;;;0.90;99.90;;;;;;5027589;28;20007;-61
2022/12/08 04:11:08;;;;;;;;;;;0.90;99.90;;;;;;5030458;28;20071;-60
2022/12/08 04:13:37;;;;;;;;;;;0.90;99.90;;;;;;5024017;28;19920;-58
2022/12/08 04:16:03;;;;;;;;;;;0.90;99.90;;;;;;5027553;28;20379;-62
2022/12/08 04:18:29;;;;;;;;;;;1.00;99.90;;;;;;5024436;28;19916;-63
2022/12/08 04:20:54;;;;;;;;;;;1.00;99.90;;;;;;5030476;28;20311;-62
2022/12/08 04:23:20;;;;;;;;;;;0.90;99.90;;;;;;5029727;28;19917;-62
2022/12/08 04:25:45;;;;;;;;;;;0.90;99.90;;;;;;5030233;28;19917;-63
2022/12/08 04:28:11;;;;;;;;;;;0.90;99.90;;;;;;5027696;28;19960;-62
2022/12/08 04:30:37;;;;;;;;;;;1.00;99.90;;;;;;5030023;28;20232;-59
2022/12/08 04:33:02;;;;;;;;;;;1.00;99.90;;;;;;5023995;28;19920;-61
2022/12/08 04:35:28;;;;;;;;;;;1.00;99.90;;;;;;5026216;28;20395;-58
2022/12/08 04:37:53;;;;;;;;;;;1.00;99.90;;;;;;5029568;28;19913;-60
2022/12/08 04:40:19;;;;;;;;;;;1.00;99.90;;;;;;5029713;28;20307;-57
2022/12/08 04:42:44;;;;;;;;;;;1.00;99.90;;;;;;5025726;28;20012;-58
2022/12/08 04:45:10;;;;;;;;;;;1.00;99.90;;;;;;5017896;28;19914;-61
2022/12/08 04:47:35;;;;;;;;;;;0.90;99.90;;;;;;5027788;28;19913;-57
2022/12/08 04:50:01;;;;;;;;;;;1.00;99.90;;;;;;5028995;28;20294;-59
2022/12/08 04:52:27;;;;;;;;;;;0.90;99.90;;;;;;5029833;28;20423;-58
2022/12/08 04:54:52;;;;;;;;;;;1.00;99.90;;;;;;5026638;28;20286;-60
2022/12/08 04:57:18;;;;;;;;;;;1.00;99.90;;;;;;5029474;28;19914;-56
2022/12/08 04:59:43;;;;;;;;;;;0.90;99.90;;;;;;5025234;28;19958;-56
2022/12/08 05:02:09;;;;;;;;;;;0.90;99.90;;;;;;5020097;28;19921;-59
2022/12/08 05:04:34;;;;;;;;;;;0.90;99.90;;;;;;5025416;28;19936;-57
2022/12/08 05:07:00;;;;;;;;;;;1.00;99.90;;;;;;5026836;28;20271;-57
2022/12/08 05:09:25;;;;;;;;;;;0.90;99.90;;;;;;5029661;28;20040;-56
2022/12/08 05:11:51;;;;;;;;;;;0.90;99.90;;;;;;5024718;28;19938;-60
2022/12/08 05:14:17;;;;;;;;;;;0.90;99.90;;;;;;5027903;28;19914;-58
2022/12/08 05:16:43;;;;;;;;;;;0.90;99.90;;;;;;5024399;28;19913;-60
2022/12/08 05:19:09;;;;;;;;;;;0.90;99.90;;;;;;5024994;28;19940;-60
2022/12/08 05:21:34;;;;;;;;;;;0.90;99.90;;;;;;5025853;28;20411;-58
2022/12/08 05:24:00;;;;;;;;;;;0.90;99.90;;;;;;5024940;28;19929;-60
2022/12/08 05:26:25;;;;;;;;;;;0.90;99.90;;;;;;5028900;28;20286;-59
2022/12/08 05:28:51;;;;;;;;;;;1.00;99.90;;;;;;5025242;28;19909;-58
2022/12/08 05:31:16;;;;;;;;;;;0.90;99.90;;;;;;5029499;28;20363;-61
2022/12/08 05:33:43;;;;;;;;;;;0.90;99.90;;;;;;5023759;28;19913;-58
2022/12/08 05:36:10;;;;;;;;;;;1.00;99.90;;;;;;5026582;28;19979;-54
2022/12/08 05:38:35;;;;;;;;;;;0.90;99.90;;;;;;5020333;28;20350;-59
2022/12/08 05:41:01;;;;;;;;;;;0.90;99.90;;;;;;5029296;28;19973;-58
2022/12/08 05:43:26;;;;;;;;;;;0.90;99.90;;;;;;5031138;28;19936;-58
2022/12/08 05:45:52;;;;;;;;;;;0.90;99.90;;;;;;5021401;28;19917;-58
2022/12/08 05:48:17;;;;;;;;;;;0.90;99.90;;;;;;5031223;28;20007;-60
2022/12/08 05:50:47;;;;;;;;;;;0.90;99.90;;;;;;5026311;28;19910;-54
2022/12/08 05:53:12;;;;;;;;;;;0.90;99.90;;;;;;5030544;28;19960;-60
2022/12/08 05:55:38;;;;;;;;;;;0.90;99.90;;;;;;5026505;28;19913;-60
2022/12/08 05:58:03;;;;;;;;;;;0.90;99.90;;;;;;5032695;28;19956;-56
2022/12/08 06:00:29;;;;;;;;;;;0.90;99.90;;;;;;5027930;28;19920;-58
2022/12/08 06:02:55;;;;;;;;;;;0.90;99.90;;;;;;5022955;28;19917;-59
2022/12/08 06:05:20;;;;;;;;;;;0.90;99.90;;;;;;5025079;28;20342;-60
2022/12/08 06:07:45;;;;;;;;;;;0.90;99.90;;;;;;5028697;28;19909;-59
2022/12/08 06:10:11;;;;;;;;;;;0.90;99.90;;;;;;5046666;28;19963;-59
2022/12/08 06:12:37;;;;;;;;;;;0.90;99.90;;;;;;5027389;28;19963;-59
2022/12/08 06:15:02;;;;;;;;;;;0.90;99.90;;;;;;5031444;28;19952;-59
2022/12/08 06:17:28;;;;;;;;;;;0.90;99.90;;;;;;5027627;28;19910;-57
2022/12/08 06:19:53;;;;;;;;;;;0.90;99.90;;;;;;5029902;28;19913;-59
2022/12/08 06:22:19;;;;;;;;;;;0.90;99.90;;;;;;5031241;28;20295;-60
2022/12/08 06:24:44;;;;;;;;;;;0.90;99.90;;;;;;5046307;28;19917;-60
2022/12/08 06:27:10;;;;;;;;;;;0.90;99.90;;;;;;5031189;28;20076;-59
2022/12/08 06:29:35;;;;;;;;;;;0.90;99.90;;;;;;5031637;28;19913;-60
2022/12/08 06:32:01;;;;;;;;;;;0.90;99.90;;;;;;5032420;28;19971;-57
2022/12/08 06:34:26;;;;;;;;;;;0.80;99.90;;;;;;5046931;28;19924;-56
2022/12/08 06:36:52;;;;;;;;;;;0.90;99.90;;;;;;5032064;28;19913;-56
2022/12/08 06:39:17;;;;;;;;;;;0.90;99.90;;;;;;5027901;28;19920;-59
2022/12/08 06:44:27;;;;;;;;;;;0.90;99.90;;;;;;5026657;28;19963;-60
2022/12/08 06:46:52;;;;;;;;;;;0.90;99.90;;;;;;5031446;28;19957;-57
2022/12/08 06:49:17;;;;;;;;;;;0.90;99.90;;;;;;5031479;28;19921;-57
2022/12/08 06:51:43;;;;;;;;;;;0.90;99.90;;;;;;5031669;28;19913;-58
2022/12/08 06:54:08;;;;;;;;;;;0.90;99.90;;;;;;5030804;28;19928;-60
2022/12/08 06:56:34;;;;;;;;;;;0.90;99.90;;;;;;5025862;28;20128;-59
2022/12/08 06:58:59;;;;;;;;;;;0.90;99.90;;;;;;5029012;28;19917;-58
2022/12/08 07:01:25;;;;;;;;;;;0.90;99.90;;;;;;5029469;28;19971;-60
2022/12/08 07:03:50;;;;;;;;;;;0.90;99.90;;;;;;5044021;28;20000;-60
2022/12/08 07:06:18;;;;;;;;;;;0.80;99.90;;;;;;5028686;28;19913;-58
2022/12/08 07:08:43;;;;;;;;;;;0.90;99.90;;;;;;5046335;28;19995;-59
2022/12/08 07:11:10;;;;;;;;;;;0.80;99.90;;;;;;5043570;28;19914;-58
2022/12/08 07:13:35;;;;;;;;;;;0.80;99.90;;;;;;5023135;28;19909;-59
2022/12/08 07:16:03;;;;;;;;;;;0.90;99.90;;;;;;5026660;28;20000;-60
2022/12/08 07:18:29;;;;;;;;;;;0.90;99.90;;;;;;5027451;28;19921;-61
2022/12/08 07:20:54;;;;;;;;;;;0.90;99.90;;;;;;5027784;28;19913;-60
2022/12/08 07:23:19;;;;;;;;;;;0.90;99.90;;;;;;5029521;28;20114;-60
2022/12/08 07:25:45;;;;;;;;;;;0.90;99.90;;;;;;5030702;28;19967;-61
2022/12/08 07:28:10;;;;;;;;;;;0.90;99.90;;;;;;5026601;28;20380;-61
2022/12/08 07:30:37;;;;;;;;;;;0.80;99.90;;;;;;5044904;28;20498;-61
2022/12/08 07:33:04;;;;;;;;;;;0.90;99.90;;;;;;5030539;28;19920;-62
2022/12/08 07:35:29;;;;;;;;;;;0.90;99.90;;;;;;5030293;28;19924;-61
2022/12/08 07:37:56;;;;;;;;;;;0.90;99.90;;;;;;5030844;28;19917;-61
2022/12/08 07:40:22;;;;;;;;;;;0.80;99.90;;;;;;5028900;28;19960;-61
2022/12/08 07:42:47;;;;;;;;;;;0.80;99.90;;;;;;5030113;28;20419;-61
2022/12/08 07:45:13;;;;;;;;;;;0.80;99.90;;;;;;5027957;28;19919;-61
2022/12/08 07:47:38;;;;;;;;;;;0.80;99.90;;;;;;5027927;28;19925;-61
2022/12/08 07:50:04;;;;;;;;;;;0.90;99.90;;;;;;5012366;28;19919;-62
2022/12/08 07:52:29;;;;;;;;;;;0.90;99.90;;;;;;5028504;28;19963;-62
2022/12/08 07:54:55;;;;;;;;;;;0.80;99.90;;;;;;5019075;28;19913;-61
2022/12/08 07:57:20;;;;;;;;;;;0.80;99.90;;;;;;5026080;28;19914;-60
2022/12/08 07:59:46;;;;;;;;;;;0.80;99.90;;;;;;5026197;28;19915;-62
2022/12/08 08:02:20;;;;;;;;;;;0.80;99.90;;;;;;5030089;28;19960;-62
2022/12/08 08:04:48;;;;;;;;;;;0.80;99.90;;;;;;5024586;28;20387;-62
2022/12/08 08:07:14;;;;;;;;;;;0.80;99.90;;;;;;5030199;28;19913;-62
2022/12/08 08:09:39;;;;;;;;;;;0.80;99.90;;;;;;5029527;28;19924;-62
2022/12/08 08:12:05;;;;;;;;;;;0.90;99.90;;;;;;5026878;28;19913;-63
2022/12/08 08:14:30;;;;;;;;;;;0.80;99.90;;;;;;5028240;28;20037;-62
2022/12/08 08:16:56;;;;;;;;;;;0.80;99.90;;;;;;5025110;28;19913;-63
2022/12/08 08:19:21;;;;;;;;;;;0.80;99.90;;;;;;5030338;28;19929;-63
2022/12/08 08:21:47;;;;;;;;;;;0.80;99.90;;;;;;5024442;28;19996;-63
2022/12/08 08:24:12;;;;;;;;;;;0.80;99.90;;;;;;5029941;28;19913;-63
2022/12/08 08:26:38;;;;;;;;;;;0.80;99.90;;;;;;5022948;28;20184;-63
2022/12/08 08:29:03;;;;;;;;;;;0.70;99.90;;;;;;5023477;28;19913;-64
2022/12/08 08:31:29;;;;;;;;;;;0.70;99.90;;;;;;5028961;28;20038;-64
2022/12/08 08:33:55;;;;;;;;;;;0.80;99.90;;;;;;5044810;22;19923;-60
2022/12/08 08:36:21;;;;;;;;;;;0.80;99.90;;;;;;5028828;28;19920;-63
2022/12/08 08:38:46;;;;;;;;;;;0.80;99.90;;;;;;5027023;28;19921;-62
2022/12/08 08:41:12;;;;;;;;;;;0.80;99.90;;;;;;5024521;28;20004;-63
2022/12/08 08:43:37;;;;;;;;;;;0.80;99.90;;;;;;5028562;28;19921;-64
2022/12/08 08:46:03;;;;;;;;;;;0.80;99.90;;;;;;5026118;28;20390;-61
2022/12/08 08:48:29;;;;;;;;;;;0.80;99.90;;;;;;5028686;28;19909;-62
2022/12/08 08:50:55;;;;;;;;;;;0.80;99.90;;;;;;5025690;28;20189;-63
2022/12/08 08:53:21;;;;;;;;;;;0.80;99.90;;;;;;5028725;28;20016;-63
2022/12/08 08:55:47;;;;;;;;;;;0.80;99.90;;;;;;5021794;28;20375;-62
2022/12/08 08:58:12;;;;;;;;;;;0.80;99.90;;;;;;5029536;28;19920;-63
2022/12/08 09:00:38;;;;;;;;;;;0.80;99.90;;;;;;5026555;28;19991;-62
2022/12/08 09:03:03;;;;;;;;;;;0.80;99.90;;;;;;5029776;28;20011;-63
2022/12/08 09:05:28;;;;;;;;;;;0.80;99.90;;;;;;5028369;28;19913;-62
2022/12/08 09:07:54;;;;;;;;;;;0.80;99.90;;;;;;5026803;28;19913;-63
2022/12/08 09:10:19;;;;;;;;;;;0.80;99.90;;;;;;5030095;28;20375;-62
2022/12/08 09:12:45;;;;;;;;;;;0.80;99.90;;;;;;5024930;28;19915;-61
2022/12/08 09:15:10;;;;;;;;;;;0.70;99.90;;;;;;5032309;28;19948;-63
2022/12/08 09:17:37;;;;;;;;;;;0.70;99.90;;;;;;5028061;28;20379;-63
2022/12/08 09:20:03;;;;;;;;;;;0.70;99.90;;;;;;5033034;28;19909;-61
2022/12/08 09:22:28;;;;;;;;;;;0.60;99.90;;;;;;5028427;28;19917;-61
2022/12/08 09:24:54;;;;;;;;;;;0.60;99.90;;;;;;5029697;28;19963;-60
2022/12/08 09:27:19;;;;;;;;;;;0.60;99.90;;;;;;5033466;28;19909;-60
2022/12/08 09:29:45;;;;;;;;;;;0.50;99.90;;;;;;5028152;28;19909;-59
2022/12/08 09:32:10;;;;;;;;;;;0.50;99.90;;;;;;5033407;28;19917;-60
2022/12/08 09:34:35;;;;;;;;;;;0.50;99.90;;;;;;5027797;28;20163;-60
2022/12/08 09:37:01;;;;;;;;;;;0.50;99.90;;;;;;5033551;28;20290;-60
2022/12/08 09:39:27;;;;;;;;;;;0.50;99.90;;;;;;5027812;28;19971;-62
2022/12/08 09:42:00;;;;;;;;;;;0.50;99.90;;;;;;5029227;28;19921;-63
2022/12/08 09:44:45;;;;;;;;;;;0.50;99.90;;;;;;5031168;28;19923;-62
2022/12/08 09:47:16;;;;;;;;;;;0.50;99.90;;;;;;5024517;28;19913;-62
2022/12/08 09:49:46;;;;;;;;;;;0.50;99.90;;;;;;5031713;28;19957;-62
2022/12/08 09:52:18;;;;;;;;;;;0.50;99.90;;;;;;5024557;28;19913;-62
2022/12/08 09:54:44;;;;;;;;;;;0.50;99.90;;;;;;5022242;28;19909;-61
2022/12/08 09:57:12;;;;;;;;;;;0.60;99.90;;;;;;5028066;28;19924;-61
2022/12/08 09:59:37;;;;;;;;;;;0.60;99.90;;;;;;5028349;28;20299;-61
2022/12/08 10:02:10;;;;;;;;;;;0.60;99.90;;;;;;5026004;28;19913;-60
2022/12/08 10:04:39;;;;;;;;;;;0.60;99.90;;;;;;5031510;28;19944;-62
2022/12/08 10:07:16;;;;;;;;;;;0.70;99.90;;;;;;5031953;28;19914;-61
2022/12/08 10:09:56;;;;;;;;;;;0.70;99.90;;;;;;5030044;28;20303;-60
2022/12/08 10:12:26;;;;;;;;;;;0.80;99.90;;;;;;5028223;28;19914;-61
2022/12/08 10:15:02;;;;;;;;;;;0.80;99.90;;;;;;5030929;28;19992;-62
2022/12/08 10:17:33;;;;;;;;;;;0.80;99.90;;;;;;5026787;28;19917;-62
2022/12/08 10:20:01;;;;;;;;;;;0.80;99.90;;;;;;5031482;28;19920;-62
2022/12/08 10:22:30;;;;;;;;;;;0.80;99.90;;;;;;5027050;28;19913;-62
2022/12/08 10:25:00;;;;;;;;;;;0.80;99.90;;;;;;5028494;28;20418;-62
2022/12/08 10:27:25;;;;;;;;;;;0.80;99.90;;;;;;5031099;28;19956;-61
2022/12/08 10:29:51;;;;;;;;;;;0.80;99.90;;;;;;5027242;28;20387;-63
2022/12/08 10:32:18;;;;;;;;;;;0.70;99.90;;;;;;5028688;28;19915;-62
2022/12/08 10:35:05;;;;;;;;;;;0.80;99.90;;;;;;5028533;28;19932;-62
2022/12/08 10:37:30;;;;;;;;;;;0.80;99.90;;;;;;5028833;28;19915;-62
2022/12/08 10:40:12;;;;;;;;;;;0.80;99.90;;;;;;5027055;28;20000;-62
2022/12/08 10:42:48;;;;;;;;;;;0.80;99.90;;;;;;5031070;28;19921;-62
2022/12/08 10:45:28;;;;;;;;;;;0.80;99.90;;;;;;5027948;28;20454;-62
2022/12/08 10:48:04;;;;;;;;;;;0.90;99.90;;;;;;5029245;28;19909;-62
2022/12/08 10:50:32;;;;;;;;;;;1.00;99.90;;;;;;5030862;28;19979;-63
2022/12/08 10:52:57;;;;;;;;;;;1.10;99.90;;;;;;5024697;28;19913;-62
2022/12/08 10:55:23;;;;;;;;;;;1.10;99.90;;;;;;5029240;28;20440;-61
2022/12/08 10:57:48;;;;;;;;;;;1.20;99.90;;;;;;5045075;28;19928;-60
2022/12/08 11:00:15;;;;;;;;;;;1.20;99.90;;;;;;5026811;28;19921;-62
2022/12/08 11:02:56;;;;;;;;;;;1.20;99.90;;;;;;5031636;28;19913;-62
2022/12/08 11:05:22;;;;;;;;;;;1.20;99.90;;;;;;5030451;28;19913;-62
2022/12/08 11:07:52;;;;;;;;;;;1.10;99.90;;;;;;5028874;28;20330;-63
2022/12/08 11:10:18;;;;;;;;;;;1.20;99.90;;;;;;5031585;28;20004;-62
2022/12/08 11:12:43;;;;;;;;;;;1.20;99.90;;;;;;5026658;28;20193;-62
2022/12/08 11:15:14;;;;;;;;;;;1.10;99.90;;;;;;5025010;28;20546;-60
2022/12/08 11:17:39;;;;;;;;;;;1.20;99.90;;;;;;5027789;28;20442;-62
2022/12/08 11:20:08;;;;;;;;;;;1.10;99.90;;;;;;5025601;28;20001;-63
2022/12/08 11:22:40;;;;;;;;;;;1.10;99.90;;;;;;5027832;28;19959;-63
2022/12/08 11:25:06;;;;;;;;;;;1.10;99.90;;;;;;5029527;28;19914;-61
2022/12/08 11:27:31;;;;;;;;;;;1.10;99.90;;;;;;5030925;28;19916;-62
2022/12/08 11:29:57;;;;;;;;;;;1.10;99.90;;;;;;5025872;28;19947;-63
2022/12/08 11:32:23;;;;;;;;;;;1.10;99.90;;;;;;5031349;28;19909;-63
2022/12/08 11:34:52;;;;;;;;;;;1.10;99.90;;;;;;5024617;28;19979;-63
2022/12/08 11:37:36;;;;;;;;;;;1.00;99.90;;;;;;5030464;28;20390;-62
2022/12/08 11:40:06;;;;;;;;;;;1.00;99.90;;;;;;5018784;28;20363;-62
2022/12/08 11:42:36;;;;;;;;;;;1.10;99.90;;;;;;5030736;28;20431;-62
2022/12/08 11:45:09;;;;;;;;;;;1.10;99.90;;;;;;5029201;28;20386;-62
2022/12/08 11:47:46;;;;;;;;;;;1.10;99.90;;;;;;5030417;28;19914;-61
2022/12/08 11:50:20;;;;;;;;;;;1.20;99.90;;;;;;5025046;28;20000;-63
2022/12/08 11:52:47;;;;;;;;;;;1.20;99.90;;;;;;5027862;28;20016;-63
2022/12/08 11:55:31;;;;;;;;;;;1.20;99.90;;;;;;5011639;28;19909;-63
2022/12/08 11:57:59;;;;;;;;;;;1.20;99.90;;;;;;5030709;28;19919;-61
2022/12/08 12:00:25;;;;;;;;;;;1.30;99.90;;;;;;5026178;28;19963;-62
2022/12/08 12:02:53;;;;;;;;;;;1.20;99.90;;;;;;5029711;28;20322;-62
2022/12/08 12:05:19;;;;;;;;;;;1.20;99.90;;;;;;5030375;28;19963;-61
2022/12/08 12:08:01;;;;;;;;;;;1.20;99.90;;;;;;5026833;28;19956;-60
2022/12/08 12:10:46;;;;;;;;;;;1.20;99.90;;;;;;5030679;28;19913;-61
2022/12/08 12:13:12;;;;;;;;;;;1.20;99.90;;;;;;5027844;28;19913;-61
2022/12/08 12:15:49;;;;;;;;;;;1.20;99.90;;;;;;5029571;28;20342;-61
2022/12/08 12:18:17;;;;;;;;;;;1.20;99.90;;;;;;5028805;28;19959;-60
2022/12/08 12:20:55;;;;;;;;;;;1.20;99.90;;;;;;5028724;28;19913;-63
2022/12/08 12:23:38;;;;;;;;;;;1.20;99.90;;;;;;5026464;28;19917;-62
2022/12/08 12:26:08;;;;;;;;;;;1.20;99.90;;;;;;5023624;28;19921;-62
2022/12/08 12:28:40;;;;;;;;;;;1.20;99.90;;;;;;5025738;28;22548;-62
2022/12/08 12:31:07;;;;;;;;;;;1.20;99.90;;;;;;5028486;28;19913;-63
2022/12/08 12:33:33;;;;;;;;;;;1.20;99.90;;;;;;5024537;28;19909;-63
2022/12/08 12:36:02;;;;;;;;;;;1.20;99.90;;;;;;5026978;28;20382;-62
2022/12/08 12:41:27;;;;;;;;;;;1.20;99.90;;;;;;5026328;28;19916;-62
2022/12/08 12:44:25;;;;;;;;;;;1.20;99.90;;;;;;5028048;28;20430;-61
2022/12/08 12:46:52;;;;;;;;;;;1.10;99.90;;;;;;5001008;28;19909;-61
2022/12/08 12:49:36;;;;;;;;;;;1.10;99.90;;;;;;5025710;28;19921;-62
2022/12/08 12:52:01;;;;;;;;;;;1.10;99.90;;;;;;5023124;28;19973;-63
2022/12/08 12:54:28;;;;;;;;;;;1.10;99.90;;;;;;5021896;28;19952;-62
2022/12/08 12:56:53;;;;;;;;;;;1.10;99.90;;;;;;5022089;28;19921;-62
2022/12/08 12:59:28;;;;;;;;;;;1.10;99.90;;;;;;5021903;28;19909;-61
2022/12/08 13:01:54;;;;;;;;;;;1.10;99.90;;;;;;5021775;28;20314;-63
2022/12/08 13:04:27;;;;;;;;;;;1.10;99.90;;;;;;5022889;28;19914;-63
2022/12/08 13:06:53;;;;;;;;;;;1.10;99.90;;;;;;5042035;28;20371;-63
2022/12/08 13:09:20;;;;;;;;;;;1.10;99.90;;;;;;5029538;28;19924;-62
2022/12/08 13:11:48;;;;;;;;;;;1.10;99.90;;;;;;5025769;28;19913;-62
2022/12/08 13:14:25;;;;;;;;;;;1.10;99.90;;;;;;5028256;28;20458;-62
2022/12/08 13:16:53;;;;;;;;;;;1.10;99.90;;;;;;5021858;28;19917;-63
2022/12/08 13:19:20;;;;;;;;;;;1.10;99.90;;;;;;5025225;28;19913;-63
2022/12/08 13:21:45;;;;;;;;;;;1.20;99.90;;;;;;5029172;28;20294;-63
2022/12/08 13:24:16;;;;;;;;;;;1.20;99.90;;;;;;5027490;28;20004;-63
2022/12/08 13:26:46;;;;;;;;;;;1.20;99.90;;;;;;5025464;28;19945;-62
2022/12/08 13:29:13;;;;;;;;;;;1.20;99.90;;;;;;5023370;28;20020;-63
2022/12/08 13:31:39;;;;;;;;;;;1.20;99.90;;;;;;5027801;28;19916;-63
2022/12/08 13:34:07;;;;;;;;;;;1.20;99.90;;;;;;5018129;28;19914;-63
2022/12/08 13:36:34;;;;;;;;;;;1.20;99.90;;;;;;5021750;28;19920;-62
2022/12/08 13:39:00;;;;;;;;;;;1.20;99.90;;;;;;5029202;28;19909;-62
2022/12/08 13:41:34;;;;;;;;;;;1.20;99.90;;;;;;5025777;28;20383;-62
2022/12/08 13:44:21;;;;;;;;;;;1.20;99.90;;;;;;5021850;28;20350;-63
2022/12/08 13:46:50;;;;;;;;;;;1.20;99.90;;;;;;5023882;28;19964;-63
2022/12/08 13:49:17;;;;;;;;;;;1.20;99.90;;;;;;5044621;28;19916;-63
2022/12/08 13:51:45;;;;;;;;;;;1.20;99.90;;;;;;5022118;28;19917;-61
2022/12/08 13:54:23;;;;;;;;;;;1.20;99.90;;;;;;5023057;28;19979;-63
2022/12/08 13:56:50;;;;;;;;;;;1.20;99.90;;;;;;5021932;28;19928;-63
2022/12/08 13:59:18;;;;;;;;;;;1.20;99.90;;;;;;5023148;28;19948;-63
2022/12/08 14:01:45;;;;;;;;;;;1.20;99.90;;;;;;5030185;28;20160;-63
2022/12/08 14:04:21;;;;;;;;;;;1.20;99.90;;;;;;5026614;28;20380;-61
2022/12/08 14:06:47;;;;;;;;;;;1.20;99.90;;;;;;5029922;28;19955;-63
2022/12/08 14:09:15;;;;;;;;;;;1.10;99.90;;;;;;5032396;28;20003;-62
2022/12/08 14:11:49;;;;;;;;;;;1.10;99.90;;;;;;5027844;28;19920;-61
2022/12/08 14:14:16;;;;;;;;;;;1.10;99.90;;;;;;5030909;28;20421;-63
2022/12/08 14:16:47;;;;;;;;;;;1.10;99.90;;;;;;5029854;28;19921;-62
2022/12/08 14:19:21;;;;;;;;;;;1.20;99.90;;;;;;5030499;28;19996;-63
2022/12/08 14:21:49;;;;;;;;;;;1.10;99.90;;;;;;5029447;28;19913;-63
2022/12/08 14:24:15;;;;;;;;;;;1.10;99.90;;;;;;5044408;28;19917;-62
2022/12/08 14:26:40;;;;;;;;;;;1.10;99.90;;;;;;5031842;28;20004;-62
2022/12/08 14:29:06;;;;;;;;;;;1.20;99.90;;;;;;5027457;28;19909;-63
2022/12/08 14:31:32;;;;;;;;;;;1.10;99.90;;;;;;5032382;28;20329;-63
2022/12/08 14:33:57;;;;;;;;;;;1.10;99.90;;;;;;5026912;28;20020;-63
2022/12/08 14:36:23;;;;;;;;;;;1.10;99.90;;;;;;5025820;28;19917;-62
2022/12/08 14:38:50;;;;;;;;;;;1.10;99.90;;;;;;5026324;28;19917;-62
2022/12/08 14:41:15;;;;;;;;;;;1.10;99.90;;;;;;5044134;28;19910;-63
2022/12/08 14:43:41;;;;;;;;;;;1.10;99.90;;;;;;5031190;28;19913;-62
2022/12/08 14:46:33;;;;;;;;;;;1.10;99.90;;;;;;5027507;28;20020;-62